Time;durP1;ratioP1;P1;durP2;ratioP2;P2;SDS_P1;SDS_P2;PMS_P1;PMS_P2;Temp;Humidity;BMP_temperature;BMP_pressure;BME280_temperature;BME280_humidity;BME280_pressure;Samples;Min_cycle;Max_cycle;Signal;HPM_P1;HPM_P2
2021/04/23 00:01:00;;;;;;;5.60;2.28;;;5.00;63.50;;;;;;5070277;28;20036;-64
2021/04/23 00:03:32;;;;;;;8.02;1.90;;;4.90;63.50;;;;;;5062281;28;20086;-63
2021/04/23 00:06:06;;;;;;;5.38;1.65;;;4.80;64.10;;;;;;5051907;28;20037;-63
2021/04/23 00:08:32;;;;;;;3.85;1.73;;;4.70;64.90;;;;;;5053394;28;20394;-62
2021/04/23 00:10:59;;;;;;;7.70;2.08;;;4.70;65.20;;;;;;5054240;28;20057;-61
2021/04/23 00:13:25;;;;;;;8.55;2.53;;;4.60;65.60;;;;;;5050837;28;20025;-60
2021/04/23 00:15:52;;;;;;;5.70;1.92;;;4.60;66.10;;;;;;5054279;28;20055;-61
2021/04/23 00:18:18;;;;;;;3.55;1.73;;;4.50;66.40;;;;;;5070450;28;20116;-62
2021/04/23 00:20:44;;;;;;;4.47;1.80;;;4.50;66.80;;;;;;5056532;28;20052;-63
2021/04/23 00:23:11;;;;;;;6.18;2.25;;;4.40;67.30;;;;;;5050951;28;20055;-63
2021/04/23 00:25:37;;;;;;;9.07;2.70;;;4.40;67.90;;;;;;5054903;28;20389;-65
2021/04/23 00:28:06;;;;;;;6.20;2.28;;;4.30;67.90;;;;;;5063698;28;20041;-66
2021/04/23 00:30:35;;;;;;;8.93;2.97;;;4.30;68.20;;;;;;5051566;28;20462;-65
2021/04/23 00:33:01;;;;;;;6.95;2.05;;;4.30;68.90;;;;;;5059897;28;20033;-64
2021/04/23 00:35:31;;;;;;;8.90;2.15;;;4.30;68.30;;;;;;5066863;28;20055;-61
2021/04/23 00:37:59;;;;;;;5.85;2.17;;;4.30;68.30;;;;;;5062605;28;20040;-63
2021/04/23 00:40:30;;;;;;;5.03;2.08;;;4.20;68.20;;;;;;5061960;28;20021;-63
2021/04/23 00:42:57;;;;;;;6.30;2.00;;;4.20;68.30;;;;;;5070752;28;20029;-62
2021/04/23 00:45:26;;;;;;;6.82;2.20;;;4.10;68.60;;;;;;5055566;28;20211;-63
2021/04/23 00:47:53;;;;;;;8.13;2.42;;;4.00;68.80;;;;;;5054396;28;20367;-62
2021/04/23 00:50:43;;;;;;;8.20;2.35;;;4.00;68.90;;;;;;5054296;28;20033;-63
2021/04/23 00:53:13;;;;;;;5.82;2.88;;;3.90;68.90;;;;;;5059728;28;20033;-64
2021/04/23 00:55:40;;;;;;;8.38;2.35;;;3.90;69.30;;;;;;5051442;28;20029;-61
2021/04/23 00:58:19;;;;;;;11.75;2.58;;;3.90;70.20;;;;;;5065420;28;20051;-66
2021/04/23 01:00:48;;;;;;;12.40;3.40;;;3.80;70.60;;;;;;5051698;28;20040;-62
2021/04/23 01:03:16;;;;;;;8.17;2.67;;;3.80;70.90;;;;;;5060208;28;20028;-63
2021/04/23 01:05:42;;;;;;;9.52;2.90;;;3.70;71.00;;;;;;5058083;28;20021;-62
2021/04/23 01:08:08;;;;;;;10.25;3.05;;;3.70;71.40;;;;;;5050252;28;20063;-65
2021/04/23 01:10:35;;;;;;;8.10;3.28;;;3.60;71.80;;;;;;5067451;28;20487;-62
2021/04/23 01:13:01;;;;;;;9.68;3.45;;;3.60;72.00;;;;;;5053338;28;20501;-64
2021/04/23 01:15:27;;;;;;;10.57;4.03;;;3.60;72.20;;;;;;5062668;28;20151;-63
2021/04/23 01:17:53;;;;;;;9.70;3.72;;;3.50;72.60;;;;;;5067051;28;20417;-62
2021/04/23 01:20:20;;;;;;;10.60;3.83;;;3.50;72.80;;;;;;5073795;28;20086;-62
2021/04/23 01:22:46;;;;;;;11.02;3.90;;;3.50;73.00;;;;;;5057611;28;20364;-62
2021/04/23 01:25:13;;;;;;;12.40;4.05;;;3.50;73.20;;;;;;5073478;28;20039;-64
2021/04/23 01:27:40;;;;;;;10.20;3.88;;;3.40;73.50;;;;;;5066315;28;20025;-63
2021/04/23 01:30:09;;;;;;;12.10;4.90;;;3.40;74.10;;;;;;5064800;28;20029;-66
2021/04/23 01:32:38;;;;;;;16.58;4.47;;;3.40;73.70;;;;;;5072722;28;20048;-64
2021/04/23 01:35:12;;;;;;;9.73;4.05;;;3.40;73.10;;;;;;5057175;28;20044;-66
2021/04/23 01:37:38;;;;;;;15.35;5.43;;;3.50;73.00;;;;;;5074371;28;20043;-64
2021/04/23 01:40:10;;;;;;;11.85;4.63;;;3.50;73.30;;;;;;5071874;28;20028;-62
2021/04/23 01:42:37;;;;;;;12.95;4.43;;;3.50;73.00;;;;;;5062409;28;20031;-62
2021/04/23 01:45:04;;;;;;;10.93;4.57;;;3.60;72.60;;;;;;5055117;28;20363;-62
2021/04/23 01:47:30;;;;;;;9.85;4.63;;;3.60;72.80;;;;;;5055846;28;20033;-62
2021/04/23 01:49:55;;;;;;;11.25;4.32;;;3.60;73.00;;;;;;5073901;28;20477;-62
2021/04/23 01:52:24;;;;;;;20.27;4.47;;;3.50;73.70;;;;;;5057793;28;20532;-63
2021/04/23 01:54:51;;;;;;;9.88;4.35;;;3.40;74.10;;;;;;5064507;28;20033;-60
2021/04/23 01:57:18;;;;;;;15.65;4.65;;;3.40;74.60;;;;;;5067641;28;20036;-63
2021/04/23 01:59:46;;;;;;;15.73;4.97;;;3.30;74.80;;;;;;5055627;28;20036;-64
2021/04/23 02:02:13;;;;;;;14.23;4.78;;;3.30;75.40;;;;;;5071533;28;20029;-64
2021/04/23 02:04:39;;;;;;;11.45;4.15;;;3.30;76.20;;;;;;5058609;28;20036;-62
2021/04/23 02:07:07;;;;;;;10.23;4.28;;;3.30;76.90;;;;;;5064029;28;20444;-63
2021/04/23 02:09:33;;;;;;;11.93;4.20;;;3.30;77.10;;;;;;5067781;28;20024;-62
2021/04/23 02:11:59;;;;;;;10.10;4.35;;;3.30;77.20;;;;;;5053840;28;20032;-63
2021/04/23 02:14:25;;;;;;;12.50;4.65;;;3.20;77.50;;;;;;5072461;28;20099;-63
2021/04/23 02:16:52;;;;;;;14.27;3.97;;;3.20;77.60;;;;;;5058637;28;20470;-63
2021/04/23 02:19:18;;;;;;;12.93;4.82;;;3.20;77.90;;;;;;5062176;28;20032;-64
2021/04/23 02:21:44;;;;;;;8.27;4.10;;;3.10;77.90;;;;;;5069723;28;20025;-62
2021/04/23 02:24:11;;;;;;;9.02;3.85;;;3.10;77.60;;;;;;5052685;28;20488;-66
2021/04/23 02:26:38;;;;;;;6.88;3.78;;;3.10;77.20;;;;;;5057414;28;20119;-62
2021/04/23 02:29:14;;;;;;;9.20;3.88;;;3.10;77.10;;;;;;5058340;28;20493;-64
2021/04/23 02:31:43;;;;;;;8.25;3.63;;;3.10;77.10;;;;;;5057342;28;20035;-62
2021/04/23 02:34:11;;;;;;;7.15;3.28;;;3.00;77.30;;;;;;5071324;28;20029;-66
2021/04/23 02:36:36;;;;;;;8.70;3.90;;;2.90;77.70;;;;;;5067492;28;20486;-64
2021/04/23 02:39:05;;;;;;;12.13;3.40;;;2.90;78.00;;;;;;5052171;28;20056;-63
2021/04/23 02:41:31;;;;;;;6.40;3.47;;;2.90;78.20;;;;;;5072339;28;20030;-62
2021/04/23 02:43:57;;;;;;;8.18;3.90;;;2.90;78.40;;;;;;5064019;28;20141;-64
2021/04/23 02:46:25;;;;;;;10.65;4.97;;;2.80;78.70;;;;;;5063288;28;20032;-63
2021/04/23 02:48:51;;;;;;;5.60;2.80;;;2.80;79.30;;;;;;5057388;28;20036;-64
2021/04/23 02:51:23;;;;;;;9.48;3.70;;;2.70;79.70;;;;;;5070770;28;20044;-63
2021/04/23 02:53:49;;;;;;;5.45;3.33;;;2.70;80.00;;;;;;5053467;28;20162;-63
2021/04/23 02:56:17;;;;;;;11.77;3.92;;;2.70;80.00;;;;;;5067367;28;20042;-64
2021/04/23 02:58:43;;;;;;;7.38;3.58;;;2.60;80.40;;;;;;5071744;28;20044;-64
2021/04/23 03:01:13;;;;;;;8.88;3.92;;;2.60;80.50;;;;;;5068497;28;20033;-66
2021/04/23 03:03:39;;;;;;;11.98;4.22;;;2.60;81.00;;;;;;5068252;28;20065;-64
2021/04/23 03:06:05;;;;;;;10.80;3.80;;;2.50;81.40;;;;;;5054845;28;20046;-63
2021/04/23 03:08:31;;;;;;;21.23;5.95;;;2.50;81.70;;;;;;5065410;28;20024;-64
2021/04/23 03:11:13;;;;;;;9.63;3.67;;;2.50;82.10;;;;;;5063562;28;20501;-64
2021/04/23 03:13:41;;;;;;;8.73;3.00;;;2.40;82.40;;;;;;5058036;28;20060;-62
2021/04/23 03:16:08;;;;;;;6.25;3.40;;;2.40;82.80;;;;;;5072490;28;20032;-62
2021/04/23 03:18:36;;;;;;;8.52;3.63;;;2.40;83.10;;;;;;5052129;28;20029;-63
2021/04/23 03:21:05;;;;;;;8.80;3.33;;;2.30;83.30;;;;;;5066660;28;20028;-63
2021/04/23 03:23:31;;;;;;;9.35;3.40;;;2.30;83.70;;;;;;5062364;28;20025;-63
2021/04/23 03:26:02;;;;;;;12.77;3.35;;;2.30;84.00;;;;;;5056186;28;20489;-63
2021/04/23 03:28:29;;;;;;;6.90;3.40;;;2.20;84.40;;;;;;5071259;28;20094;-62
2021/04/23 03:30:55;;;;;;;7.20;3.28;;;2.20;84.50;;;;;;5053063;28;20137;-65
2021/04/23 03:33:21;;;;;;;7.85;3.53;;;2.20;84.60;;;;;;5052591;28;20120;-63
2021/04/23 03:35:50;;;;;;;7.70;3.75;;;2.10;84.70;;;;;;5059774;28;20548;-62
2021/04/23 03:38:17;;;;;;;9.43;4.10;;;2.10;85.90;;;;;;5059057;28;20036;-63
2021/04/23 03:40:43;;;;;;;7.38;3.45;;;2.10;86.30;;;;;;5068490;28;20032;-64
2021/04/23 03:43:09;;;;;;;10.70;4.03;;;2.10;86.20;;;;;;5051574;28;20056;-66
2021/04/23 03:45:36;;;;;;;8.98;3.55;;;2.00;86.60;;;;;;5067301;28;20041;-64
2021/04/23 03:48:03;;;;;;;15.48;4.05;;;2.00;86.80;;;;;;5066563;28;20074;-62
2021/04/23 03:50:31;;;;;;;7.40;4.30;;;2.00;87.20;;;;;;5062843;28;20064;-60
2021/04/23 03:52:59;;;;;;;9.13;4.18;;;1.90;88.00;;;;;;5062513;28;20029;-61
2021/04/23 03:55:30;;;;;;;10.07;3.97;;;1.90;88.70;;;;;;5051403;28;20100;-61
2021/04/23 03:57:58;;;;;;;9.13;4.00;;;1.90;89.10;;;;;;5067948;28;20041;-63
2021/04/23 04:00:34;;;;;;;9.38;3.72;;;1.90;89.50;;;;;;5060269;28;20058;-62
2021/04/23 04:03:01;;;;;;;8.68;3.92;;;1.90;89.60;;;;;;5055526;28;20121;-62
2021/04/23 04:05:27;;;;;;;7.20;3.17;;;1.90;89.80;;;;;;5064848;28;20115;-62
2021/04/23 04:07:52;;;;;;;8.27;3.08;;;1.90;89.60;;;;;;5052352;28;20436;-62
2021/04/23 04:10:19;;;;;;;9.55;3.88;;;1.80;89.70;;;;;;5069221;28;20470;-61
2021/04/23 04:12:45;;;;;;;7.32;3.13;;;1.80;90.30;;;;;;5056175;28;20529;-62
2021/04/23 04:15:12;;;;;;;8.55;3.78;;;1.80;90.50;;;;;;5061330;28;20078;-64
2021/04/23 04:17:37;;;;;;;9.55;4.18;;;1.70;90.70;;;;;;5066826;28;20102;-61
2021/04/23 04:20:06;;;;;;;8.45;3.88;;;1.80;91.40;;;;;;5051567;28;20462;-60
2021/04/23 04:22:32;;;;;;;10.15;3.47;;;1.70;91.40;;;;;;5058580;28;20029;-62
2021/04/23 04:24:57;;;;;;;11.63;3.60;;;1.70;91.70;;;;;;5065213;28;20107;-63
2021/04/23 04:27:23;;;;;;;12.93;3.88;;;1.70;91.90;;;;;;5061276;28;20037;-62
2021/04/23 04:29:49;;;;;;;10.20;4.15;;;1.80;92.50;;;;;;5051576;28;20075;-63
2021/04/23 04:32:16;;;;;;;9.20;3.90;;;1.90;92.50;;;;;;5050775;28;20025;-65
2021/04/23 04:34:42;;;;;;;8.80;3.92;;;1.90;92.00;;;;;;5069196;28;20032;-63
2021/04/23 04:37:08;;;;;;;9.98;3.65;;;1.90;91.20;;;;;;5069544;28;20028;-63
2021/04/23 04:39:34;;;;;;;8.43;3.63;;;1.90;91.10;;;;;;5062499;28;20322;-63
2021/04/23 04:41:59;;;;;;;11.15;3.83;;;1.90;90.70;;;;;;5052570;28;20394;-63
2021/04/23 04:44:25;;;;;;;9.23;3.67;;;1.90;90.60;;;;;;5050770;28;20351;-64
2021/04/23 04:46:51;;;;;;;8.57;3.40;;;1.90;90.50;;;;;;5060484;28;20033;-65
2021/04/23 04:49:16;;;;;;;10.68;4.18;;;1.90;90.70;;;;;;5073659;28;20029;-64
2021/04/23 04:51:42;;;;;;;12.65;4.97;;;2.00;90.60;;;;;;5066807;28;20052;-64
2021/04/23 04:54:08;;;;;;;12.73;4.72;;;2.00;90.70;;;;;;5065999;28;20060;-63
2021/04/23 04:56:33;;;;;;;12.18;4.50;;;2.10;90.80;;;;;;5054635;28;20738;-64
2021/04/23 04:58:59;;;;;;;10.93;4.32;;;2.10;90.70;;;;;;5070491;28;20098;-64
2021/04/23 05:01:25;;;;;;;13.05;4.60;;;2.20;90.90;;;;;;5058369;28;20020;-64
2021/04/23 05:03:51;;;;;;;10.93;4.47;;;2.30;90.80;;;;;;5069746;28;20107;-62
2021/04/23 05:06:18;;;;;;;12.63;4.72;;;2.30;90.50;;;;;;5054292;28;20397;-61
2021/04/23 05:08:44;;;;;;;10.68;4.35;;;2.40;90.40;;;;;;5055968;28;20087;-64
2021/04/23 05:11:10;;;;;;;12.52;4.53;;;2.50;90.20;;;;;;5068527;28;20398;-63
2021/04/23 05:13:35;;;;;;;13.40;4.18;;;2.50;89.70;;;;;;5073363;28;20064;-62
2021/04/23 05:16:01;;;;;;;10.90;4.22;;;2.60;88.90;;;;;;5058296;28;20054;-62
2021/04/23 05:18:27;;;;;;;10.98;3.90;;;2.70;88.40;;;;;;5073672;28;20024;-64
2021/04/23 05:20:53;;;;;;;9.68;3.83;;;2.90;87.90;;;;;;5063385;28;20124;-62
2021/04/23 05:23:19;;;;;;;10.57;4.18;;;2.90;86.70;;;;;;5066607;28;20024;-62
2021/04/23 05:25:45;;;;;;;12.60;5.32;;;3.00;86.60;;;;;;5074508;28;20431;-62
2021/04/23 05:28:10;;;;;;;12.18;5.45;;;3.20;87.40;;;;;;5057351;28;20035;-62
2021/04/23 05:30:38;;;;;;;15.07;5.47;;;3.20;86.60;;;;;;5059785;28;20106;-64
2021/04/23 05:33:05;;;;;;;13.75;5.57;;;3.30;86.10;;;;;;5062860;28;20040;-61
2021/04/23 05:35:32;;;;;;;15.88;6.10;;;3.30;85.80;;;;;;5060298;28;20064;-64
2021/04/23 05:37:58;;;;;;;8.40;5.00;;;3.50;86.40;;;;;;5054408;28;20041;-63
2021/04/23 05:40:35;;;;;;;10.73;5.20;;;3.50;85.10;;;;;;5059260;28;20028;-68
2021/04/23 05:43:03;;;;;;;17.60;5.45;;;3.60;84.10;;;;;;5053587;28;20466;-62
2021/04/23 05:45:28;;;;;;;12.00;5.35;;;3.70;83.60;;;;;;5061812;28;20029;-62
2021/04/23 05:47:55;;;;;;;11.27;5.00;;;3.80;83.20;;;;;;5064206;28;20044;-63
2021/04/23 05:50:21;;;;;;;15.82;5.80;;;3.90;82.80;;;;;;5053579;28;20047;-62
2021/04/23 05:52:49;;;;;;;17.92;5.90;;;3.90;82.40;;;;;;5073254;28;20111;-63
2021/04/23 05:55:16;;;;;;;10.30;5.28;;;4.10;81.40;;;;;;5071907;28;20037;-69
2021/04/23 05:57:43;;;;;;;13.00;5.05;;;4.20;81.10;;;;;;5058946;28;20387;-62
2021/04/23 06:00:14;;;;;;;18.85;6.00;;;4.30;81.00;;;;;;5062186;28;20028;-64
2021/04/23 06:02:40;;;;;;;13.63;6.22;;;4.40;79.60;;;;;;5054549;28;20066;-62
2021/04/23 06:05:07;;;;;;;11.80;5.70;;;4.50;78.20;;;;;;5068795;28;20029;-62
2021/04/23 06:07:32;;;;;;;23.05;6.90;;;4.60;77.80;;;;;;5063372;28;20068;-63
2021/04/23 06:09:58;;;;;;;13.82;5.68;;;4.80;76.50;;;;;;5057894;28;20056;-60
2021/04/23 06:12:24;;;;;;;18.23;6.70;;;4.90;75.60;;;;;;5067278;28;20029;-62
2021/04/23 06:14:49;;;;;;;22.40;7.20;;;5.00;75.40;;;;;;5062145;28;20466;-61
2021/04/23 06:17:15;;;;;;;18.50;7.43;;;5.10;74.40;;;;;;5061291;28;20481;-68
2021/04/23 06:19:41;;;;;;;12.63;6.72;;;5.20;73.70;;;;;;5068254;28;20021;-63
2021/04/23 06:22:08;;;;;;;13.90;7.40;;;5.20;73.40;;;;;;5059080;28;20115;-63
2021/04/23 06:24:33;;;;;;;16.33;6.88;;;5.40;72.40;;;;;;5063978;28;20028;-64
2021/04/23 06:27:00;;;;;;;16.88;7.53;;;5.50;71.30;;;;;;5065802;28;20032;-62
2021/04/23 06:29:26;;;;;;;14.88;6.57;;;5.50;71.20;;;;;;5052859;28;20037;-63
2021/04/23 06:31:55;;;;;;;16.15;6.68;;;5.60;70.70;;;;;;5067743;28;20030;-63
2021/04/23 06:34:21;;;;;;;14.63;6.25;;;5.70;70.20;;;;;;5054575;28;20033;-64
2021/04/23 06:36:47;;;;;;;15.48;6.32;;;5.70;69.90;;;;;;5057151;28;20376;-61
2021/04/23 06:39:16;;;;;;;22.08;7.78;;;5.80;70.10;;;;;;5063347;28;20025;-62
2021/04/23 06:41:42;;;;;;;19.90;6.80;;;5.90;69.10;;;;;;5066047;28;20454;-62
2021/04/23 06:44:07;;;;;;;17.60;7.15;;;6.10;68.60;;;;;;5057125;28;20108;-62
2021/04/23 06:46:33;;;;;;;16.30;7.15;;;6.20;68.40;;;;;;5066771;28;20035;-64
2021/04/23 06:48:59;;;;;;;19.10;7.45;;;6.20;68.20;;;;;;5064445;28;20071;-63
2021/04/23 06:51:25;;;;;;;15.77;7.15;;;6.40;67.60;;;;;;5059229;28;20036;-65
2021/04/23 06:53:50;;;;;;;23.17;7.32;;;6.50;66.90;;;;;;5062527;28;20068;-63
2021/04/23 06:56:16;;;;;;;18.98;7.68;;;6.50;66.90;;;;;;5060463;28;20112;-66
2021/04/23 06:58:43;;;;;;;20.88;7.32;;;6.60;66.90;;;;;;5060321;28;20122;-64
2021/04/23 07:01:09;;;;;;;16.13;7.25;;;6.70;66.00;;;;;;5062194;28;20051;-63
2021/04/23 07:03:35;;;;;;;14.07;6.43;;;6.80;65.60;;;;;;5060544;28;20104;-63
2021/04/23 07:06:00;;;;;;;21.55;7.18;;;6.90;64.60;;;;;;5058581;28;20390;-63
2021/04/23 07:08:26;;;;;;;18.27;7.38;;;7.00;64.90;;;;;;5059216;28;20056;-64
2021/04/23 07:10:52;;;;;;;18.92;7.57;;;7.10;65.20;;;;;;5060155;28;20459;-64
2021/04/23 07:13:18;;;;;;;15.20;6.60;;;7.30;64.50;;;;;;5059693;28;20108;-67
2021/04/23 07:15:44;;;;;;;13.52;6.75;;;7.40;63.70;;;;;;5058999;28;20044;-64
2021/04/23 07:18:10;;;;;;;17.00;6.05;;;7.60;63.70;;;;;;5062021;28;20028;-64
2021/04/23 07:20:36;;;;;;;18.63;6.85;;;7.80;61.40;;;;;;5058690;28;20025;-65
2021/04/23 07:23:02;;;;;;;24.92;8.60;;;7.90;61.30;;;;;;5059627;28;20036;-64
2021/04/23 07:25:28;;;;;;;22.73;8.30;;;7.90;61.80;;;;;;5060106;28;20040;-64
2021/04/23 07:27:57;;;;;;;20.83;6.80;;;8.00;61.50;;;;;;5060247;28;20381;-63
2021/04/23 07:30:30;;;;;;;20.40;6.57;;;8.10;60.30;;;;;;5060491;28;20482;-63
2021/04/23 07:32:58;;;;;;;21.35;6.65;;;8.20;60.00;;;;;;5061974;28;20051;-65
2021/04/23 07:35:25;;;;;;;18.90;7.03;;;8.20;60.10;;;;;;5061518;28;20500;-64
2021/04/23 07:37:51;;;;;;;17.05;6.70;;;8.30;60.30;;;;;;5060611;28;20490;-64
2021/04/23 07:40:18;;;;;;;19.35;5.93;;;8.40;59.70;;;;;;5059914;28;20047;-68
2021/04/23 07:42:44;;;;;;;22.83;5.93;;;8.50;59.00;;;;;;5060737;28;20090;-72
2021/04/23 07:45:11;;;;;;;14.45;6.07;;;8.70;57.30;;;;;;5062576;28;20055;-62
2021/04/23 07:47:37;;;;;;;16.90;6.43;;;8.80;57.30;;;;;;5063518;28;20035;-65
2021/04/23 07:50:05;;;;;;;22.45;6.07;;;8.90;57.50;;;;;;5061916;28;20025;-65
2021/04/23 07:52:31;;;;;;;17.40;6.90;;;9.00;57.30;;;;;;5059295;28;20039;-70
2021/04/23 07:54:58;;;;;;;22.00;6.07;;;9.10;57.00;;;;;;5058677;28;20021;-70
2021/04/23 07:57:24;;;;;;;17.00;6.32;;;9.20;55.90;;;;;;5062844;28;20059;-71
2021/04/23 07:59:50;;;;;;;22.25;6.63;;;9.30;55.40;;;;;;5062176;28;20501;-70
2021/04/23 08:02:16;;;;;;;12.65;5.10;;;9.50;55.20;;;;;;5059057;28;20540;-70
2021/04/23 08:04:42;;;;;;;16.33;6.05;;;9.50;55.00;;;;;;5059121;28;20024;-70
2021/04/23 08:07:08;;;;;;;12.43;4.63;;;9.60;54.40;;;;;;5060317;28;20067;-70
2021/04/23 08:09:35;;;;;;;10.82;4.63;;;9.60;54.30;;;;;;5057851;28;20032;-70
2021/04/23 08:12:00;;;;;;;18.17;4.95;;;9.70;54.50;;;;;;5059977;28;20032;-71
2021/04/23 08:14:26;;;;;;;14.13;5.55;;;9.80;53.70;;;;;;5059844;28;20100;-71
2021/04/23 08:16:55;;;;;;;17.17;5.50;;;9.90;53.30;;;;;;5062852;28;20028;-73
2021/04/23 08:19:21;;;;;;;18.85;5.10;;;10.20;52.20;;;;;;5060505;28;20028;-73
2021/04/23 08:21:48;;;;;;;16.27;4.82;;;10.40;51.80;;;;;;5059821;28;20055;-74
2021/04/23 08:24:13;;;;;;;13.30;4.75;;;10.50;51.90;;;;;;5060349;28;20105;-73
2021/04/23 08:26:42;;;;;;;14.90;4.70;;;10.60;51.00;;;;;;5059604;28;20140;-68
2021/04/23 08:29:08;;;;;;;12.77;5.43;;;10.70;50.70;;;;;;5061166;28;20071;-68
2021/04/23 08:31:34;;;;;;;18.73;5.45;;;10.80;51.40;;;;;;5048719;28;20116;-69
2021/04/23 08:33:59;;;;;;;17.85;5.18;;;10.90;50.70;;;;;;5062759;28;20024;-67
2021/04/23 08:36:25;;;;;;;15.32;4.75;;;11.10;49.80;;;;;;5059392;28;20044;-69
2021/04/23 08:38:51;;;;;;;20.17;5.13;;;11.20;49.20;;;;;;5059314;28;20371;-64
2021/04/23 08:41:16;;;;;;;17.38;5.50;;;11.30;49.50;;;;;;5057621;28;20095;-66
2021/04/23 08:43:42;;;;;;;18.00;5.53;;;11.40;49.20;;;;;;5061222;28;20517;-65
2021/04/23 08:46:08;;;;;;;15.52;5.18;;;11.60;48.90;;;;;;5055107;28;20108;-64
2021/04/23 08:48:34;;;;;;;24.33;7.45;;;11.60;48.40;;;;;;5057871;28;20028;-63
2021/04/23 08:51:00;;;;;;;14.55;5.75;;;11.60;48.40;;;;;;5059139;28;20029;-66
2021/04/23 08:53:27;;;;;;;16.10;5.95;;;11.80;48.20;;;;;;5059329;28;20462;-64
2021/04/23 08:55:57;;;;;;;16.08;5.95;;;11.70;47.60;;;;;;5061662;28;20033;-64
2021/04/23 08:58:23;;;;;;;14.25;6.38;;;11.70;48.30;;;;;;5060567;28;20037;-66
2021/04/23 09:00:49;;;;;;;13.80;6.28;;;11.80;46.90;;;;;;5060383;28;20351;-63
2021/04/23 09:03:19;;;;;;;16.75;6.88;;;11.90;48.30;;;;;;5059816;28;20028;-66
2021/04/23 09:06:07;;;;;;;18.65;6.78;;;12.00;47.40;;;;;;5060404;28;20604;-64
2021/04/23 09:08:36;;;;;;;21.67;6.20;;;12.00;47.50;;;;;;5057458;28;20435;-64
2021/04/23 09:11:19;;;;;;;19.65;5.78;;;12.10;50.10;;;;;;5061692;28;20029;-62
2021/04/23 09:13:49;;;;;;;19.05;5.55;;;12.30;47.10;;;;;;5055546;28;20044;-63
2021/04/23 09:16:15;;;;;;;13.52;5.57;;;12.40;46.20;;;;;;5059751;28;20098;-63
2021/04/23 09:18:40;;;;;;;24.95;8.93;;;12.50;45.90;;;;;;5059370;28;20465;-63
2021/04/23 09:21:06;;;;;;;17.60;6.28;;;12.70;45.60;;;;;;5060628;28;20028;-63
2021/04/23 09:23:32;;;;;;;17.48;6.32;;;12.80;45.20;;;;;;5059492;28;20480;-64
2021/04/23 09:26:00;;;;;;;14.00;5.70;;;12.90;44.50;;;;;;5057493;28;20493;-66
2021/04/23 09:28:40;;;;;;;20.55;6.55;;;12.90;45.60;;;;;;5062055;28;20028;-66
2021/04/23 09:31:38;;;;;;;19.88;7.10;;;13.00;45.30;;;;;;5060249;28;20108;-65
2021/04/23 09:34:06;;;;;;;19.25;7.07;;;13.00;45.10;;;;;;5038008;28;20041;-66
2021/04/23 09:36:44;;;;;;;14.20;6.35;;;13.00;46.30;;;;;;5060517;28;20465;-67
2021/04/23 09:39:10;;;;;;;20.83;7.57;;;13.00;45.50;;;;;;5064050;28;20362;-66
2021/04/23 09:41:37;;;;;;;14.02;5.63;;;13.10;46.10;;;;;;5060790;28;20111;-66
2021/04/23 09:44:04;;;;;;;14.02;6.07;;;13.20;45.90;;;;;;5061377;28;20025;-65
2021/04/23 09:46:38;;;;;;;17.65;6.93;;;13.40;46.90;;;;;;5063867;28;20071;-63
2021/04/23 09:49:20;;;;;;;21.42;6.85;;;13.40;45.20;;;;;;5062152;28;20033;-63
2021/04/23 09:51:46;;;;;;;17.55;6.35;;;13.40;45.00;;;;;;5065615;28;20066;-64
2021/04/23 09:54:31;;;;;;;19.23;6.25;;;13.40;46.60;;;;;;5061865;28;20108;-62
2021/04/23 09:56:58;;;;;;;19.33;6.80;;;13.40;45.10;;;;;;5063727;28;20102;-62
2021/04/23 09:59:26;;;;;;;18.13;7.07;;;13.40;45.40;;;;;;5061440;28;20456;-64
2021/04/23 10:02:02;;;;;;;11.93;5.43;;;13.60;44.40;;;;;;5063506;28;20074;-65
2021/04/23 10:04:34;;;;;;;15.00;5.68;;;13.70;44.30;;;;;;5061627;28;20052;-66
2021/04/23 10:07:13;;;;;;;15.85;5.95;;;13.80;44.30;;;;;;5062609;28;20044;-65
2021/04/23 10:09:52;;;;;;;17.55;6.30;;;14.00;47.20;;;;;;5060767;28;20770;-66
2021/04/23 10:12:29;;;;;;;16.55;5.95;;;13.90;44.70;;;;;;5063169;28;20032;-68
2021/04/23 10:15:00;;;;;;;12.75;5.30;;;13.90;43.40;;;;;;5063276;28;20052;-65
2021/04/23 10:17:27;;;;;;;17.48;5.85;;;13.90;44.00;;;;;;5063522;28;20033;-65
2021/04/23 10:19:54;;;;;;;13.23;5.07;;;14.00;41.90;;;;;;5063124;28;20125;-63
2021/04/23 10:22:21;;;;;;;11.25;4.82;;;14.10;43.90;;;;;;5059385;28;20020;-64
2021/04/23 10:24:48;;;;;;;17.30;6.25;;;14.20;44.50;;;;;;5064828;28;20497;-64
2021/04/23 10:27:15;;;;;;;19.35;6.60;;;14.20;48.00;;;;;;5059680;28;20075;-63
2021/04/23 10:29:45;;;;;;;15.65;5.45;;;14.40;49.30;;;;;;5061161;28;20033;-62
2021/04/23 10:32:11;;;;;;;13.45;6.55;;;14.40;41.80;;;;;;5060606;28;20108;-62
2021/04/23 10:34:37;;;;;;;16.42;6.03;;;14.60;41.60;;;;;;5059527;28;20295;-64
2021/04/23 10:37:05;;;;;;;12.15;4.65;;;14.70;40.70;;;;;;5064762;28;20033;-65
2021/04/23 10:39:41;;;;;;;14.00;5.38;;;14.70;41.40;;;;;;5059169;28;20071;-69
2021/04/23 10:42:46;;;;;;;16.48;5.85;;;14.90;43.30;;;;;;5059821;28;20386;-64
2021/04/23 10:45:16;;;;;;;12.07;5.20;;;15.10;40.60;;;;;;5057994;28;20112;-65
2021/04/23 10:47:42;;;;;;;14.65;5.72;;;15.10;39.50;;;;;;5060617;28;20112;-71
2021/04/23 10:50:15;;;;;;;12.05;5.28;;;15.20;38.80;;;;;;5060624;28;20448;-71
2021/04/23 10:53:00;;;;;;;13.00;4.47;;;15.40;39.10;;;;;;5059443;28;20111;-69
2021/04/23 10:55:51;;;;;;;15.50;5.88;;;15.50;38.60;;;;;;5059510;28;20029;-69
2021/04/23 10:58:28;;;;;;;13.85;5.25;;;15.60;38.80;;;;;;5053795;28;20106;-72
2021/04/23 11:00:56;;;;;;;13.95;4.88;;;15.70;38.20;;;;;;5061129;28;20037;-69
2021/04/23 11:03:35;;;;;;;13.30;5.35;;;15.90;36.80;;;;;;5059249;28;20038;-70
2021/04/23 11:06:07;;;;;;;13.23;5.25;;;16.00;37.10;;;;;;5061286;28;20039;-69
2021/04/23 11:08:35;;;;;;;12.45;5.70;;;15.90;37.60;;;;;;5059537;28;20064;-71
2021/04/23 11:11:13;;;;;;;17.83;5.80;;;15.90;37.70;;;;;;5061151;28;20047;-68
2021/04/23 11:13:42;;;;;;;10.60;4.53;;;16.00;36.90;;;;;;5061979;28;20037;-65
2021/04/23 11:16:19;;;;;;;11.48;5.00;;;16.10;37.40;;;;;;5059798;28;20147;-69
2021/04/23 11:18:52;;;;;;;12.25;5.07;;;16.40;36.50;;;;;;5062924;28;20040;-70
2021/04/23 11:21:38;;;;;;;12.20;5.10;;;16.60;36.20;;;;;;5058570;28;20162;-70
2021/04/23 11:24:23;;;;;;;12.73;4.38;;;16.90;34.00;;;;;;5052239;28;20474;-69
2021/04/23 11:26:57;;;;;;;9.77;4.05;;;17.00;34.30;;;;;;5059203;28;20040;-68
2021/04/23 11:29:45;;;;;;;9.95;4.78;;;16.90;33.90;;;;;;5070804;28;20035;-66
2021/04/23 11:32:28;;;;;;;11.98;4.72;;;16.90;33.90;;;;;;5067681;28;20029;-67
2021/04/23 11:35:01;;;;;;;12.20;5.07;;;16.60;34.10;;;;;;5066327;28;20104;-68
2021/04/23 11:37:41;;;;;;;9.30;4.43;;;16.60;34.90;;;;;;5051340;28;20017;-67
2021/04/23 11:40:17;;;;;;;12.55;4.25;;;16.70;33.00;;;;;;5060294;28;20044;-64
2021/04/23 11:42:46;;;;;;;10.07;4.70;;;16.70;33.50;;;;;;5059922;28;20029;-64
2021/04/23 11:45:13;;;;;;;9.18;4.03;;;16.80;32.90;;;;;;5062345;28;20032;-67
2021/04/23 11:47:40;;;;;;;11.18;4.10;;;17.00;31.60;;;;;;5062342;28;20020;-67
2021/04/23 11:50:11;;;;;;;9.65;4.47;;;17.40;31.30;;;;;;5071303;28;20020;-66
2021/04/23 11:52:38;;;;;;;11.40;4.25;;;17.80;30.20;;;;;;5058601;28;20095;-71
2021/04/23 11:55:15;;;;;;;12.10;4.50;;;17.80;31.50;;;;;;5066760;28;20432;-66
2021/04/23 11:57:42;;;;;;;10.57;4.60;;;17.90;31.60;;;;;;5050731;28;20283;-66
2021/04/23 12:00:17;;;;;;;11.75;4.57;;;18.30;35.30;;;;;;5054439;28;20041;-69
2021/04/23 12:03:02;;;;;;;8.00;3.92;;;18.20;30.10;;;;;;5049899;28;20481;-70
2021/04/23 12:05:32;;;;;;;13.82;4.93;;;18.40;29.20;;;;;;5050628;28;20505;-66
2021/04/23 12:08:20;;;;;;;9.77;4.97;;;18.70;29.90;;;;;;5071080;28;20104;-63
2021/04/23 12:10:54;;;;;;;10.52;5.07;;;18.90;30.00;;;;;;5071001;28;20029;-64
2021/04/23 12:13:32;;;;;;;14.05;5.60;;;18.90;30.00;;;;;;5056769;28;20024;-67
2021/04/23 12:16:03;;;;;;;12.98;4.88;;;18.80;30.00;;;;;;5051365;28;20457;-64
2021/04/23 12:18:30;;;;;;;9.30;4.88;;;18.70;30.00;;;;;;5054583;28;20363;-63
2021/04/23 12:20:59;;;;;;;12.02;5.30;;;18.80;30.00;;;;;;5062695;28;20090;-63
2021/04/23 12:23:27;;;;;;;;;;;18.60;29.70;;;;;;5055959;28;20035;-62
2021/04/23 12:25:58;;;;;;;9.25;4.38;;;18.50;30.80;;;;;;5060918;28;19917;-64
2021/04/23 12:28:32;;;;;;;10.35;4.57;;;18.70;30.10;;;;;;5059943;28;20096;-67
2021/04/23 12:31:28;;;;;;;9.82;4.68;;;19.00;28.80;;;;;;5059172;28;20028;-65
2021/04/23 12:33:59;;;;;;;9.75;4.68;;;19.50;28.40;;;;;;5057776;28;20059;-60
2021/04/23 12:36:30;;;;;;;14.00;5.60;;;19.80;28.50;;;;;;5057625;28;20033;-65
2021/04/23 12:39:04;;;;;;;13.80;6.20;;;19.70;29.10;;;;;;5059178;28;20499;-64
2021/04/23 12:41:35;;;;;;;11.63;5.47;;;19.60;29.70;;;;;;5057727;28;20021;-64
2021/04/23 12:44:27;;;;;;;16.02;5.45;;;19.60;29.90;;;;;;5060391;28;20037;-63
2021/04/23 12:47:10;;;;;;;11.15;5.25;;;19.60;30.90;;;;;;5055038;28;20048;-63
2021/04/23 12:49:39;;;;;;;12.88;5.40;;;19.70;30.30;;;;;;5056981;28;20044;-62
2021/04/23 12:52:09;;;;;;;13.57;5.50;;;20.00;30.20;;;;;;5059742;28;20025;-66
2021/04/23 12:54:37;;;;;;;11.77;5.05;;;20.30;29.60;;;;;;5059033;28;20470;-64